< < Back
Terminal Aerodrome Forecast


Current Version              Previous Versions:   1  2  3  4  5  6  7  8  9  

Terminal Aerodrome Forecast

861
FTUS42 KCHS 020522
TAFSAV
TAF
KSAV 020522Z 0206/0306 23005KT P6SM SCT060
     FM021800 16009KT P6SM SCT040
     FM030100 19004KT P6SM FEW040=

Latest METAR

412
SAUS80 KWBC 020900 RRA
MTRSAV
METAR KSAV 020853Z AUTO 21006KT 10SM CLR 24/23 A3001 RMK AO2 SLP161
T02440228 56004 TSNO


USA.gov is the U.S. government's official web portal to all federal, state and local government web resources and services.